Time;durP1;ratioP1;P1;durP2;ratioP2;P2;SDS_P1;SDS_P2;PMS_P1;PMS_P2;Temp;Humidity;BMP_temperature;BMP_pressure;BME280_temperature;BME280_humidity;BME280_pressure;Samples;Min_cycle;Max_cycle;Signal;HPM_P1;HPM_P2
2024/02/25 00:00:09;;;;;;;1.95;0.80;;;;;;;-0.96;100.00;92000.09;2106114;28;20052;-81
2024/02/25 00:01:10;;;;;;;1.17;0.90;;;;;;;-0.91;100.00;92004.97;2114985;27;20031;-81
2024/02/25 00:02:11;;;;;;;1.10;0.82;;;;;;;-0.93;100.00;92007.19;2117200;27;20038;-79
2024/02/25 00:03:12;;;;;;;1.25;0.95;;;;;;;-0.86;100.00;91999.34;2100895;28;20032;-81
2024/02/25 00:04:13;;;;;;;0.93;0.88;;;;;;;-0.66;100.00;92010.25;2094750;28;20055;-81
2024/02/25 00:05:14;;;;;;;0.85;0.82;;;;;;;-0.64;100.00;92000.91;2110112;28;20452;-81
2024/02/25 00:06:15;;;;;;;1.10;1.00;;;;;;;-0.82;100.00;92000.13;2108750;28;20027;-80
2024/02/25 00:07:16;;;;;;;1.05;0.95;;;;;;;-0.81;100.00;92007.59;2103170;28;20027;-81
2024/02/25 00:08:17;;;;;;;0.90;0.90;;;;;;;-0.88;100.00;91994.47;2099118;28;20036;-82
2024/02/25 00:09:18;;;;;;;2.35;0.90;;;;;;;-0.89;100.00;92003.44;2112831;28;20047;-80
2024/02/25 00:10:19;;;;;;;2.78;0.88;;;;;;;-0.91;100.00;91997.09;2120581;27;20045;-79
2024/02/25 00:11:20;;;;;;;0.73;0.73;;;;;;;-1.08;100.00;92003.78;2114062;28;20107;-80
2024/02/25 00:12:23;;;;;;;1.40;1.02;;;;;;;-1.03;100.00;92004.16;2112744;27;20024;-80
2024/02/25 00:13:24;;;;;;;1.02;0.93;;;;;;;-1.06;100.00;91998.91;2118270;27;20015;-80
2024/02/25 00:14:29;;;;;;;1.23;0.80;;;;;;;-1.15;100.00;92001.88;2122526;27;20027;-80
2024/02/25 00:15:30;;;;;;;2.00;0.80;;;;;;;-1.03;100.00;91992.94;2104302;28;20024;-81
2024/02/25 00:16:35;;;;;;;1.13;0.88;;;;;;;-0.97;100.00;91996.69;2097197;28;20032;-79
2024/02/25 00:17:36;;;;;;;1.25;0.98;;;;;;;-1.00;100.00;92007.19;2109482;27;20027;-80
2024/02/25 00:18:37;;;;;;;0.80;0.80;;;;;;;-0.94;100.00;91998.56;2118994;27;20015;-81
2024/02/25 00:19:37;;;;;;;1.27;0.90;;;;;;;-1.07;100.00;91989.53;2100554;28;20024;-82
2024/02/25 00:20:38;;;;;;;2.75;0.90;;;;;;;-1.10;100.00;92001.53;2114467;28;20054;-80
2024/02/25 00:21:39;;;;;;;0.80;0.80;;;;;;;-1.01;100.00;91993.28;2118583;27;20023;-81
2024/02/25 00:22:40;;;;;;;0.85;0.85;;;;;;;-0.89;100.00;92003.44;2121166;27;20550;-81
2024/02/25 00:23:41;;;;;;;1.40;1.02;;;;;;;-0.99;100.00;91993.69;2121866;27;20463;-80
2024/02/25 00:24:42;;;;;;;1.98;1.48;;;;;;;-0.98;100.00;91992.56;2107912;28;20361;-80
2024/02/25 00:25:44;;;;;;;1.60;1.40;;;;;;;-1.00;100.00;91994.06;2109849;28;20051;-81
2024/02/25 00:26:45;;;;;;;2.05;1.38;;;;;;;-0.97;100.00;91994.06;2105186;28;20973;-81
2024/02/25 00:27:55;;;;;;;2.13;1.40;;;;;;;-0.99;100.00;91993.69;2100943;28;20031;-80
2024/02/25 00:28:56;;;;;;;1.60;1.40;;;;;;;-0.95;100.00;91994.47;2113980;27;20115;-80
2024/02/25 00:29:57;;;;;;;2.88;1.30;;;;;;;-1.10;100.00;92001.53;2044896;27;20031;-79
2024/02/25 00:30:58;;;;;;;2.03;1.35;;;;;;;-1.14;100.00;91997.38;2039164;27;20035;-80
2024/02/25 00:32:00;;;;;;;1.63;1.15;;;;;;;-0.97;100.00;91996.69;2056597;27;20050;-80
2024/02/25 00:33:01;;;;;;;2.20;1.52;;;;;;;-1.10;100.00;91995.50;2001313;28;22483;-81
2024/02/25 00:34:02;;;;;;;3.05;1.60;;;;;;;-1.12;100.00;91995.91;2076706;28;20032;-81
2024/02/25 00:35:04;;;;;;;2.28;1.70;;;;;;;-1.06;100.00;91991.78;1973691;28;23278;-80
2024/02/25 00:36:07;;;;;;;6.78;1.75;;;;;;;-1.04;100.00;91991.44;1973665;28;20142;-82
2024/02/25 00:37:08;;;;;;;2.50;1.67;;;;;;;-1.07;100.00;91989.53;1929393;28;20240;-80
2024/02/25 00:38:10;;;;;;;3.67;1.70;;;;;;;-0.81;100.00;91991.13;1889910;27;20184;-82
2024/02/25 00:39:11;;;;;;;2.25;1.70;;;;;;;-0.81;100.00;91994.47;1918709;28;20057;-81
2024/02/25 00:40:13;;;;;;;2.25;1.63;;;;;;;-0.84;100.00;91997.09;1888635;28;21108;-79
2024/02/25 00:41:14;;;;;;;2.10;1.60;;;;;;;-0.96;100.00;91992.22;1902330;28;20109;-80
2024/02/25 00:42:15;;;;;;;4.25;1.83;;;;;;;-1.02;100.00;92003.03;1951162;28;21294;-78
2024/02/25 00:43:16;;;;;;;3.17;1.50;;;;;;;-0.99;100.00;91996.31;1925408;27;20158;-80
2024/02/25 00:44:17;;;;;;;4.68;2.10;;;;;;;-1.21;100.00;91992.88;1945863;27;20085;-80
2024/02/25 00:45:18;;;;;;;4.00;2.03;;;;;;;-1.16;100.00;91994.38;1991701;27;23134;-81
2024/02/25 00:46:19;;;;;;;2.80;1.40;;;;;;;-1.07;100.00;92000.03;2004948;27;20038;-82
2024/02/25 00:47:20;;;;;;;2.60;1.90;;;;;;;-1.25;100.00;91999.22;1932664;27;20031;-81
2024/02/25 00:48:21;;;;;;;2.30;1.67;;;;;;;-1.13;100.00;92001.53;1895310;28;20121;-80
2024/02/25 00:49:22;;;;;;;2.97;2.00;;;;;;;-1.21;100.00;92000.00;1899221;28;21898;-80
2024/02/25 00:50:23;;;;;;;2.58;1.60;;;;;;;-1.01;100.00;91998.53;1957324;28;20040;-80
2024/02/25 00:51:25;;;;;;;1.50;1.23;;;;;;;-1.06;100.00;92006.78;2084331;28;20035;-80
2024/02/25 00:52:27;;;;;;;1.75;1.50;;;;;;;-1.04;100.00;92007.16;2087621;28;20031;-80
2024/02/25 00:53:28;;;;;;;2.17;1.55;;;;;;;-1.05;100.00;92009.03;2081440;27;20035;-80
2024/02/25 00:54:29;;;;;;;1.75;1.20;;;;;;;-1.00;100.00;92004.56;2055127;27;20379;-82
2024/02/25 00:55:30;;;;;;;1.98;1.15;;;;;;;-1.05;100.00;92001.19;2054086;28;20035;-80
2024/02/25 00:56:31;;;;;;;1.90;1.30;;;;;;;-1.10;100.00;92000.75;2065951;27;20164;-80
2024/02/25 00:57:37;;;;;;;2.05;1.15;;;;;;;-1.05;100.00;92000.44;2060406;28;20059;-80
2024/02/25 00:58:38;;;;;;;1.38;1.27;;;;;;;-1.18;100.00;92001.88;2048445;28;21805;-81
2024/02/25 00:59:39;;;;;;;1.88;1.42;;;;;;;-1.28;100.00;92006.69;2075001;28;20023;-80
2024/02/25 01:00:43;;;;;;;0.93;0.93;;;;;;;-1.13;100.00;92007.50;2077549;28;20031;-81
2024/02/25 01:01:46;;;;;;;1.20;1.10;;;;;;;-1.03;100.00;92006.78;2092100;27;20162;-80
2024/02/25 01:02:47;;;;;;;1.15;1.02;;;;;;;-0.92;100.00;91998.97;2101730;27;20400;-80
2024/02/25 01:03:48;;;;;;;2.35;1.02;;;;;;;-0.92;100.00;92004.22;2094820;28;20064;-80
2024/02/25 01:04:49;;;;;;;1.52;1.00;;;;;;;-0.91;100.00;91989.22;2099238;28;20032;-80
2024/02/25 01:05:50;;;;;;;2.25;1.13;;;;;;;-1.20;100.00;91997.00;2098902;28;20082;-78
2024/02/25 01:06:51;;;;;;;1.85;1.30;;;;;;;-1.21;100.00;92000.72;2099164;28;20035;-81
2024/02/25 01:07:52;;;;;;;2.90;1.23;;;;;;;-1.28;100.00;92001.44;2103562;28;20028;-79
2024/02/25 01:08:53;;;;;;;1.63;1.25;;;;;;;-1.09;100.00;91997.78;2104181;28;20469;-79
2024/02/25 01:09:56;;;;;;;2.05;1.30;;;;;;;-1.03;100.00;92001.53;2107374;28;20020;-81
2024/02/25 01:10:57;;;;;;;1.30;1.20;;;;;;;-0.90;100.00;91998.59;2099117;28;20036;-81
2024/02/25 01:11:58;;;;;;;1.85;1.20;;;;;;;-0.83;100.00;91990.75;2106224;27;20507;-79
2024/02/25 01:12:59;;;;;;;1.45;1.23;;;;;;;-0.78;100.00;91996.38;2111732;28;20031;-81
2024/02/25 01:14:00;;;;;;;1.90;1.52;;;;;;;-0.88;100.00;91998.97;2120818;27;20105;-80
2024/02/25 01:15:01;;;;;;;2.80;1.65;;;;;;;-0.82;100.00;91995.63;2113160;28;20027;-81
2024/02/25 01:16:03;;;;;;;2.13;1.65;;;;;;;-0.80;100.00;91992.59;2108020;28;20031;-81
2024/02/25 01:17:04;;;;;;;1.85;1.63;;;;;;;-0.79;100.00;91986.22;2108844;28;20161;-81
2024/02/25 01:18:05;;;;;;;2.22;1.90;;;;;;;-0.67;100.00;92003.50;2116802;27;20043;-79
2024/02/25 01:19:09;;;;;;;2.17;1.60;;;;;;;-0.86;100.00;91997.47;2112680;28;20647;-79
2024/02/25 01:20:10;;;;;;;5.10;1.73;;;;;;;-0.61;100.00;91994.16;2113106;28;20062;-80
2024/02/25 01:21:11;;;;;;;1.92;1.60;;;;;;;-0.76;100.00;91999.38;2113891;28;20034;-79
2024/02/25 01:22:12;;;;;;;1.77;1.45;;;;;;;-0.66;100.00;91992.66;2103743;28;20441;-80
2024/02/25 01:23:13;;;;;;;2.40;1.50;;;;;;;-0.57;100.00;91995.66;2092223;28;20549;-80
2024/02/25 01:24:14;;;;;;;2.20;1.52;;;;;;;-0.46;100.00;91987.78;2097329;28;20044;-80
2024/02/25 01:25:15;;;;;;;1.60;1.50;;;;;;;-0.42;100.00;91995.69;2097467;28;20043;-79
2024/02/25 01:26:16;;;;;;;1.60;1.50;;;;;;;-0.45;100.00;91988.53;2102160;28;20066;-80
2024/02/25 01:27:17;;;;;;;1.73;1.45;;;;;;;-0.55;100.00;91995.28;2110284;28;20027;-80
2024/02/25 01:28:19;;;;;;;2.45;1.75;;;;;;;-0.43;100.00;91989.69;2114586;28;20028;-81
2024/02/25 01:29:21;;;;;;;2.70;1.80;;;;;;;-0.43;100.00;91991.56;2110857;27;20120;-81
2024/02/25 01:30:23;;;;;;;3.15;1.75;;;;;;;-0.35;100.00;91993.03;2106493;28;20023;-80
2024/02/25 01:31:24;;;;;;;2.03;1.70;;;;;;;-0.39;100.00;91993.06;2106324;28;20032;-81
2024/02/25 01:32:28;;;;;;;2.30;1.92;;;;;;;-0.36;100.00;91992.28;2110596;28;20048;-81
2024/02/25 01:33:29;;;;;;;2.80;1.63;;;;;;;-0.32;100.00;91989.69;2122742;27;20015;-80
2024/02/25 01:34:30;;;;;;;2.72;1.65;;;;;;;-0.34;100.00;91986.69;2114143;28;20072;-81
2024/02/25 01:35:31;;;;;;;2.53;1.90;;;;;;;-0.60;100.00;91987.78;2103443;28;20103;-81
2024/02/25 01:36:32;;;;;;;1.75;1.58;;;;;;;-0.49;100.00;91978.03;2106265;28;20134;-80
2024/02/25 01:37:33;;;;;;;2.63;1.90;;;;;;;-0.41;100.00;91982.16;2099906;28;20058;-80
2024/02/25 01:38:34;;;;;;;2.00;1.80;;;;;;;-0.39;100.00;91979.19;2096048;28;20075;-80
2024/02/25 01:39:35;;;;;;;1.85;1.73;;;;;;;-0.45;100.00;91975.41;2103325;28;20067;-80
2024/02/25 01:40:39;;;;;;;1.40;1.30;;;;;;;-0.51;100.00;91990.78;2107953;28;20027;-81
2024/02/25 01:41:39;;;;;;;1.60;1.50;;;;;;;-0.49;100.00;91980.66;2106519;28;20135;-80
2024/02/25 01:42:41;;;;;;;2.17;1.50;;;;;;;-0.45;100.00;91978.78;2098068;28;20020;-81
2024/02/25 01:43:42;;;;;;;1.83;1.42;;;;;;;-0.41;100.00;91970.91;2112501;28;20034;-81
2024/02/25 01:44:57;;;;;;;1.40;1.30;;;;;;;-0.61;100.00;91973.16;2108072;28;20031;-80
2024/02/25 01:46:01;;;;;;;2.55;1.40;;;;;;;-0.51;100.00;91975.78;2107827;27;20020;-81
2024/02/25 01:47:02;;;;;;;1.52;1.33;;;;;;;-0.39;100.00;91973.94;2114375;28;20069;-80
2024/02/25 01:48:08;;;;;;;1.40;1.30;;;;;;;-0.35;100.00;91969.41;2120563;27;20384;-81
2024/02/25 01:49:09;;;;;;;1.55;1.27;;;;;;;-0.59;100.00;91971.66;2109307;28;20030;-80
2024/02/25 01:50:10;;;;;;;1.63;1.52;;;;;;;-0.56;100.00;91967.53;2102733;28;20029;-81
2024/02/25 01:51:13;;;;;;;2.42;1.45;;;;;;;-0.43;100.00;91965.31;2107912;28;20020;-79
2024/02/25 01:52:15;;;;;;;2.03;1.58;;;;;;;-0.40;100.00;91972.41;2098234;28;20032;-80
2024/02/25 01:53:16;;;;;;;1.42;1.33;;;;;;;-0.55;100.00;91969.78;2096161;28;20119;-80
2024/02/25 01:54:17;;;;;;;1.83;1.60;;;;;;;-0.46;100.00;91966.06;2103281;28;20024;-80
2024/02/25 01:55:18;;;;;;;1.58;1.48;;;;;;;-0.41;100.00;91968.28;2111976;28;20028;-79
2024/02/25 01:56:20;;;;;;;1.70;1.60;;;;;;;-0.47;100.00;91962.69;2106978;28;20032;-79
2024/02/25 01:57:22;;;;;;;2.15;1.27;;;;;;;-0.35;100.00;91964.94;2107234;28;20481;-78
2024/02/25 01:58:23;;;;;;;1.70;1.60;;;;;;;-0.39;100.00;91968.69;2108143;28;20381;-81
2024/02/25 01:59:24;;;;;;;2.83;1.50;;;;;;;-0.29;100.00;91963.44;2119368;27;20021;-80
2024/02/25 02:00:27;;;;;;;1.52;1.42;;;;;;;-0.26;100.00;91954.06;2118058;27;20229;-81
2024/02/25 02:01:33;;;;;;;2.72;1.80;;;;;;;-0.26;100.00;91962.69;2110977;27;20024;-80
2024/02/25 02:02:35;;;;;;;2.20;1.40;;;;;;;-0.20;100.00;91960.44;2112592;27;20027;-80
2024/02/25 02:03:36;;;;;;;1.70;1.60;;;;;;;-0.26;100.00;91959.31;2103853;28;20167;-80
2024/02/25 02:04:37;;;;;;;1.80;1.70;;;;;;;-0.28;100.00;91966.81;2105907;28;20012;-80
2024/02/25 02:05:39;;;;;;;1.80;1.60;;;;;;;-0.17;100.00;91961.56;2119330;27;20023;-80
2024/02/25 02:06:40;;;;;;;2.42;1.55;;;;;;;-0.13;100.00;91959.66;2111309;28;20027;-81
2024/02/25 02:07:41;;;;;;;1.70;1.60;;;;;;;-0.11;100.00;91960.03;2112074;28;20459;-79
2024/02/25 02:08:42;;;;;;;2.00;1.60;;;;;;;-0.05;100.00;91955.91;2118575;27;20017;-80
2024/02/25 02:09:44;;;;;;;3.42;1.88;;;;;;;-0.10;100.00;91948.41;2122621;27;20015;-81
2024/02/25 02:10:45;;;;;;;4.32;1.90;;;;;;;-0.16;100.00;91953.28;2111373;28;20034;-80
2024/02/25 02:11:58;;;;;;;1.85;1.63;;;;;;;-0.06;100.00;91952.53;2101407;28;20040;-79
2024/02/25 02:13:02;;;;;;;1.70;1.60;;;;;;;-0.09;100.00;91950.69;2096829;28;20028;-81
2024/02/25 02:14:03;;;;;;;2.60;1.40;;;;;;;-0.07;100.00;91950.28;2104343;28;20028;-80
2024/02/25 02:15:04;;;;;;;1.83;1.73;;;;;;;-0.07;100.00;91948.41;2100944;28;20516;-80
2024/02/25 02:16:15;;;;;;;1.70;1.60;;;;;;;-0.06;100.00;91947.28;2114631;28;20216;-80
2024/02/25 02:17:16;;;;;;;1.85;1.60;;;;;;;-0.20;100.00;91959.69;2118372;27;20072;-81
2024/02/25 02:18:17;;;;;;;1.50;1.40;;;;;;;-0.08;100.00;91946.16;2109749;28;20032;-80
2024/02/25 02:19:18;;;;;;;1.98;1.77;;;;;;;-0.11;100.00;91946.91;2112016;28;20490;-80
2024/02/25 02:20:19;;;;;;;2.55;1.73;;;;;;;-0.29;100.00;91942.44;2117773;27;20053;-81
2024/02/25 02:21:20;;;;;;;2.22;1.63;;;;;;;-0.16;100.00;91944.66;2117127;27;20057;-81
2024/02/25 02:22:23;;;;;;;1.70;1.38;;;;;;;-0.21;100.00;91947.69;2113689;28;20027;-80
2024/02/25 02:23:24;;;;;;;1.40;1.30;;;;;;;-0.15;100.00;91946.91;2119674;27;20058;-80
2024/02/25 02:24:25;;;;;;;1.75;1.63;;;;;;;-0.23;100.00;91942.03;2112218;28;20342;-80
2024/02/25 02:26:47;;;;;;;2.58;1.75;;;;;;;-1.87;100.00;91939.81;2136466;27;20631;-81
2024/02/25 02:27:48;;;;;;;2.03;1.52;;;;;;;-1.76;100.00;91943.22;2118434;28;20182;-82
2024/02/25 02:28:49;;;;;;;1.85;1.60;;;;;;;-1.69;100.00;91939.88;2102529;27;20063;-80
2024/02/25 02:29:51;;;;;;;1.63;1.52;;;;;;;-1.65;100.00;91940.66;2104205;28;20443;-82
2024/02/25 02:30:52;;;;;;;1.88;1.65;;;;;;;-1.64;100.00;91936.91;2102067;28;20025;-82
2024/02/25 02:32:00;;;;;;;2.35;1.90;;;;;;;-1.79;100.00;91938.72;2108891;28;20032;-84
2024/02/25 02:33:01;;;;;;;1.80;1.60;;;;;;;-1.81;100.00;91930.47;2112870;28;20024;-85
2024/02/25 02:34:02;;;;;;;1.48;1.38;;;;;;;-1.84;100.00;91936.47;2102148;28;20024;-86
2024/02/25 02:35:04;;;;;;;1.70;1.45;;;;;;;-1.82;100.00;91924.47;2108757;28;20481;-84
2024/02/25 02:36:06;;;;;;;2.15;1.50;;;;;;;-1.73;100.00;91926.03;2116397;28;20465;-84
2024/02/25 02:37:07;;;;;;;2.05;1.73;;;;;;;-1.78;100.00;91932.38;2117918;28;20075;-85
2024/02/25 02:38:11;;;;;;;2.00;1.67;;;;;;;-1.87;100.00;91929.31;2115869;28;20024;-87
2024/02/25 02:39:12;;;;;;;1.60;1.50;;;;;;;-1.73;100.00;91932.00;2107310;28;20016;-84
2024/02/25 02:40:13;;;;;;;1.75;1.65;;;;;;;-1.89;100.00;91927.09;2102200;28;20040;-86
2024/02/25 02:41:17;;;;;;;1.50;1.40;;;;;;;-1.76;100.00;91930.13;2093753;28;20024;-86
2024/02/25 02:42:18;;;;;;;1.67;1.58;;;;;;;-1.73;100.00;91928.63;2095163;28;20098;-84
2024/02/25 02:43:19;;;;;;;2.53;1.55;;;;;;;-1.80;100.00;91929.34;2104486;28;20086;-84
2024/02/25 02:44:20;;;;;;;1.98;1.80;;;;;;;-1.70;100.00;91933.16;2107391;28;20475;-86
2024/02/25 02:45:21;;;;;;;1.60;1.50;;;;;;;-1.67;100.00;91937.63;2099282;28;20020;-84
2024/02/25 02:46:22;;;;;;;1.92;1.75;;;;;;;-1.63;100.00;91936.53;2101340;28;20070;-84
2024/02/25 02:47:23;;;;;;;2.08;1.60;;;;;;;-1.63;100.00;91933.91;2101805;28;20048;-86
2024/02/25 02:48:24;;;;;;;1.90;1.70;;;;;;;-1.64;100.00;91939.53;2108767;28;20368;-85
2024/02/25 02:49:25;;;;;;;2.05;1.40;;;;;;;-1.53;100.00;91935.84;2110611;28;20049;-84
2024/02/25 02:50:28;;;;;;;1.65;1.42;;;;;;;-1.48;100.00;91926.13;2110080;28;20031;-87
2024/02/25 02:51:29;;;;;;;1.80;1.70;;;;;;;-1.50;100.00;91933.59;2094673;28;20098;-84
2024/02/25 02:52:30;;;;;;;1.67;1.58;;;;;;;-1.49;100.00;91927.22;2108414;27;20600;-86
2024/02/25 02:53:31;;;;;;;1.85;1.60;;;;;;;-1.57;100.00;91931.72;2111636;28;20012;-87
2024/02/25 02:54:32;;;;;;;1.98;1.80;;;;;;;-1.47;100.00;91920.50;2092911;28;20029;-86
2024/02/25 02:55:33;;;;;;;1.80;1.60;;;;;;;-1.56;100.00;91928.72;2095815;28;20037;-86
2024/02/25 02:56:34;;;;;;;3.33;1.88;;;;;;;-1.44;100.00;91919.78;2093920;28;20032;-85
2024/02/25 02:57:35;;;;;;;1.80;1.50;;;;;;;-1.43;100.00;91926.53;2092103;28;20490;-90
2024/02/25 02:58:36;;;;;;;1.70;1.60;;;;;;;-1.42;100.00;91925.38;2103954;28;20016;-87
2024/02/25 02:59:38;;;;;;;1.95;1.85;;;;;;;-1.41;100.00;91923.53;2104400;28;20023;-86
2024/02/25 03:00:39;;;;;;;2.15;1.73;;;;;;;-1.43;100.00;91918.66;2096419;28;20032;-86
2024/02/25 03:01:40;;;;;;;1.83;1.67;;;;;;;-1.48;100.00;91926.88;2102943;28;20024;-85
2024/02/25 03:02:41;;;;;;;1.80;1.67;;;;;;;-1.46;100.00;91918.63;2100249;28;20040;-88
2024/02/25 03:03:42;;;;;;;3.10;1.73;;;;;;;-1.52;100.00;91923.50;2093764;28;20016;-87
2024/02/25 03:04:43;;;;;;;1.70;1.60;;;;;;;-1.55;100.00;91926.84;2102505;28;20115;-87
2024/02/25 03:05:44;;;;;;;1.98;1.67;;;;;;;-1.54;100.00;91923.88;2102311;28;20481;-89
2024/02/25 03:06:47;;;;;;;2.13;1.85;;;;;;;-1.62;100.00;91924.97;2094545;28;20401;-86
2024/02/25 03:07:53;;;;;;;2.22;1.85;;;;;;;-1.55;100.00;91918.97;2091890;28;20036;-87
2024/02/25 03:08:54;;;;;;;1.60;1.50;;;;;;;-1.68;100.00;91913.31;2098697;28;20401;-85
2024/02/25 03:09:55;;;;;;;2.13;1.50;;;;;;;-1.56;100.00;91923.47;2106107;28;20039;-85
2024/02/25 03:10:56;;;;;;;2.38;1.80;;;;;;;-1.52;100.00;91911.13;2109838;28;20400;-84
2024/02/25 03:11:57;;;;;;;2.25;1.60;;;;;;;-1.62;100.00;91921.59;2100403;28;20024;-85
2024/02/25 03:12:58;;;;;;;1.80;1.52;;;;;;;-1.58;100.00;91917.09;2104377;28;20016;-86
2024/02/25 03:14:00;;;;;;;1.88;1.70;;;;;;;-1.49;100.00;91914.91;2095993;28;20029;-85
2024/02/25 03:15:01;;;;;;;1.80;1.70;;;;;;;-1.52;100.00;91918.25;2100269;28;20445;-84
2024/02/25 03:16:11;;;;;;;2.10;1.90;;;;;;;-1.52;100.00;91919.00;2112420;28;20480;-84
2024/02/25 03:17:14;;;;;;;1.80;1.70;;;;;;;-1.50;100.00;91921.25;2112368;28;20027;-84
2024/02/25 03:18:15;;;;;;;4.25;1.60;;;;;;;-1.63;100.00;91917.44;2104402;28;20028;-84
2024/02/25 03:19:16;;;;;;;1.70;1.60;;;;;;;-1.58;100.00;91917.88;2098330;28;20473;-84
2024/02/25 03:20:19;;;;;;;1.90;1.80;;;;;;;-1.64;100.00;91915.97;2102725;28;20035;-85
2024/02/25 03:21:20;;;;;;;1.60;1.50;;;;;;;-1.67;100.00;91914.06;2110087;28;20024;-86
2024/02/25 03:22:21;;;;;;;2.22;1.70;;;;;;;-1.59;100.00;91911.09;2104159;28;20461;-86
2024/02/25 03:23:22;;;;;;;1.70;1.60;;;;;;;-1.61;100.00;91918.59;2101705;28;20028;-85
2024/02/25 03:24:23;;;;;;;1.60;1.50;;;;;;;-1.64;100.00;91916.69;2102349;28;20024;-86
2024/02/25 03:25:24;;;;;;;1.70;1.55;;;;;;;-1.68;100.00;91915.19;2019446;28;20056;-84
2024/02/25 03:26:26;;;;;;;2.78;1.85;;;;;;;-1.65;100.00;91917.09;2023251;28;20067;-85
2024/02/25 03:27:27;;;;;;;1.50;1.40;;;;;;;-1.67;100.00;91921.91;2023424;28;20149;-83
2024/02/25 03:28:28;;;;;;;1.73;1.63;;;;;;;-1.69;100.00;91917.06;2025450;28;20656;-84
2024/02/25 03:29:29;;;;;;;2.25;1.70;;;;;;;-1.77;100.00;91916.28;2033660;28;20044;-84
2024/02/25 03:30:30;;;;;;;1.98;1.80;;;;;;;-1.73;100.00;91926.78;2050151;28;20056;-84
2024/02/25 03:31:33;;;;;;;1.98;1.60;;;;;;;-1.75;100.00;91913.31;2077355;28;20025;-81
2024/02/25 03:32:34;;;;;;;2.38;1.60;;;;;;;-1.68;100.00;91921.16;2043695;28;20028;-83
2024/02/25 03:33:36;;;;;;;1.85;1.60;;;;;;;-1.67;100.00;91920.03;2016008;28;20128;-83
2024/02/25 03:34:37;;;;;;;1.90;1.70;;;;;;;-1.69;100.00;91922.28;2021706;28;20038;-82
2024/02/25 03:35:38;;;;;;;1.92;1.52;;;;;;;-1.72;100.00;91917.78;2017600;28;23764;-81
2024/02/25 03:36:39;;;;;;;2.08;1.50;;;;;;;-1.78;100.00;91920.00;2024852;28;20143;-84
2024/02/25 03:37:40;;;;;;;1.63;1.52;;;;;;;-1.91;100.00;91918.84;2036270;28;20025;-86
2024/02/25 03:38:42;;;;;;;1.38;1.27;;;;;;;-1.96;100.00;91921.81;2028695;28;20080;-84
2024/02/25 03:39:43;;;;;;;1.83;1.67;;;;;;;-1.99;100.00;91917.28;2039010;28;21083;-85
2024/02/25 03:40:44;;;;;;;2.13;1.73;;;;;;;-2.03;100.00;91922.50;2047577;28;20036;-82
2024/02/25 03:41:45;;;;;;;1.73;1.55;;;;;;;-2.02;100.00;91912.78;2042452;28;20111;-83
2024/02/25 03:42:46;;;;;;;1.98;1.58;;;;;;;-2.04;100.00;91915.03;2052337;28;20024;-82
2024/02/25 03:43:47;;;;;;;1.95;1.75;;;;;;;-2.13;100.00;91923.19;2057680;28;20029;-85
2024/02/25 03:44:48;;;;;;;2.10;1.60;;;;;;;-2.13;100.00;91923.19;2063341;28;20084;-84
2024/02/25 03:45:49;;;;;;;1.58;1.48;;;;;;;-2.09;100.00;91916.13;2072795;28;20042;-85
2024/02/25 03:46:50;;;;;;;1.90;1.80;;;;;;;-2.03;100.00;91917.25;2077218;28;20044;-83
2024/02/25 03:47:51;;;;;;;1.55;1.45;;;;;;;-2.05;100.00;91924.75;2098218;28;20016;-84
2024/02/25 03:48:52;;;;;;;1.80;1.60;;;;;;;-2.04;100.00;91920.25;2101606;28;20058;-85
2024/02/25 03:49:53;;;;;;;2.08;1.70;;;;;;;-1.96;100.00;91913.94;2096496;28;20040;-85
2024/02/25 03:50:54;;;;;;;4.10;3.10;;;;;;;-1.98;100.00;91913.53;2102495;28;20048;-83
2024/02/25 03:51:55;;;;;;;8.18;4.00;;;;;;;-1.99;100.00;91916.53;2109490;28;20050;-84
2024/02/25 03:52:56;;;;;;;4.10;2.85;;;;;;;-1.92;100.00;91914.72;2089985;28;20029;-85
2024/02/25 03:53:57;;;;;;;5.68;4.20;;;;;;;-2.03;100.00;91917.25;2090131;28;20028;-88
2024/02/25 03:54:58;;;;;;;7.35;4.45;;;;;;;-2.03;100.00;91919.88;2090100;28;20103;-85
2024/02/25 03:55:59;;;;;;;7.75;5.10;;;;;;;-2.12;100.00;91914.22;2096432;28;20065;-87
2024/02/25 03:57:02;;;;;;;6.43;4.65;;;;;;;-2.19;100.00;91911.59;2106722;28;20106;-85
2024/02/25 03:58:03;;;;;;;5.80;4.35;;;;;;;-2.33;100.00;91911.47;2101970;28;20020;-83
2024/02/25 03:59:04;;;;;;;5.95;4.22;;;;;;;-2.21;100.00;91916.41;2102786;28;20028;-85
2024/02/25 04:00:08;;;;;;;6.97;4.35;;;;;;;-2.17;100.00;91909.34;2095337;28;20036;-84
2024/02/25 04:01:09;;;;;;;6.00;3.95;;;;;;;-2.09;100.00;91913.50;2096319;28;20021;-85
2024/02/25 04:02:10;;;;;;;7.97;4.95;;;;;;;-2.11;100.00;91920.22;2097747;28;20043;-87
2024/02/25 04:03:12;;;;;;;6.57;4.53;;;;;;;-2.18;100.00;91907.09;2089995;28;20021;-87
2024/02/25 04:04:13;;;;;;;6.72;4.50;;;;;;;-2.10;100.00;91912.00;2095615;28;20033;-88
2024/02/25 04:05:15;;;;;;;6.35;4.40;;;;;;;-2.22;100.00;91919.41;2094187;28;20024;-85
2024/02/25 04:06:16;;;;;;;6.05;3.83;;;;;;;-2.05;100.00;91913.53;2111366;28;20067;-84
2024/02/25 04:07:17;;;;;;;5.47;3.90;;;;;;;-2.00;100.00;91915.03;2106445;28;20057;-86
2024/02/25 04:08:18;;;;;;;4.90;3.40;;;;;;;-1.99;100.00;91914.66;2095969;28;20476;-85
2024/02/25 04:09:20;;;;;;;4.18;3.30;;;;;;;-1.96;100.00;91913.19;2106524;28;20028;-85
2024/02/25 04:10:23;;;;;;;4.13;3.50;;;;;;;-1.98;100.00;91908.31;2097173;28;20024;-86
2024/02/25 04:11:24;;;;;;;4.68;2.80;;;;;;;-1.96;100.00;91916.56;2097944;28;20440;-86
2024/02/25 04:12:25;;;;;;;3.35;2.72;;;;;;;-2.00;100.00;91912.44;2106527;28;20035;-83
2024/02/25 04:13:26;;;;;;;3.17;2.45;;;;;;;-1.94;100.00;91910.94;2089845;28;20028;-85
2024/02/25 04:14:27;;;;;;;2.50;2.30;;;;;;;-2.09;100.00;91905.66;2100562;28;20044;-85
2024/02/25 04:15:28;;;;;;;2.92;2.22;;;;;;;-2.29;100.00;91918.22;2112032;28;20019;-84
2024/02/25 04:16:29;;;;;;;2.50;2.28;;;;;;;-2.08;100.00;91914.25;2106480;28;20023;-84
2024/02/25 04:17:31;;;;;;;2.20;2.00;;;;;;;-2.12;100.00;91913.47;2106687;28;20026;-84
2024/02/25 04:18:32;;;;;;;3.13;2.08;;;;;;;-2.10;100.00;91916.50;2100227;28;20081;-88
2024/02/25 04:19:33;;;;;;;3.03;1.80;;;;;;;-2.08;100.00;91914.25;2087789;28;20114;-85
2024/02/25 04:20:35;;;;;;;3.13;1.88;;;;;;;-2.07;100.00;91913.13;2104322;28;20492;-85
2024/02/25 04:21:39;;;;;;;2.05;1.85;;;;;;;-2.01;100.00;91913.56;2106605;28;20389;-84
2024/02/25 04:22:40;;;;;;;2.65;1.83;;;;;;;-1.94;100.00;91908.34;2090176;28;20907;-84
2024/02/25 04:23:41;;;;;;;1.90;1.80;;;;;;;-1.96;100.00;91906.09;2089712;28;20028;-86
2024/02/25 04:24:42;;;;;;;1.85;1.75;;;;;;;-2.01;100.00;91903.06;2089959;28;20021;-86
2024/02/25 04:25:43;;;;;;;1.85;1.75;;;;;;;-1.99;100.00;91906.81;2104480;28;20020;-87
2024/02/25 04:26:47;;;;;;;2.08;1.83;;;;;;;-1.97;100.00;91907.22;2103574;28;20850;-84
2024/02/25 04:27:48;;;;;;;2.05;1.85;;;;;;;-2.01;100.00;91900.47;2095160;28;20063;-88
2024/02/25 04:28:49;;;;;;;1.90;1.77;;;;;;;-1.96;100.00;91900.09;2097955;28;20150;-86
2024/02/25 04:29:50;;;;;;;1.85;1.75;;;;;;;-1.79;100.00;91902.81;2089699;28;20024;-84
2024/02/25 04:30:51;;;;;;;1.77;1.67;;;;;;;-1.77;100.00;91902.44;2094952;28;20047;-83
2024/02/25 04:31:52;;;;;;;1.80;1.70;;;;;;;-1.69;100.00;91908.44;2094831;28;20822;-82
2024/02/25 04:32:53;;;;;;;2.17;1.95;;;;;;;-1.71;100.00;91902.81;2093057;28;20032;-86
2024/02/25 04:33:54;;;;;;;1.67;1.58;;;;;;;-1.77;100.00;91905.03;2097241;28;20027;-85
2024/02/25 04:34:55;;;;;;;2.00;1.90;;;;;;;-1.79;100.00;91899.44;2095975;28;20074;-84
2024/02/25 04:35:56;;;;;;;2.13;1.83;;;;;;;-1.83;100.00;91898.66;2096698;28;20029;-87
2024/02/25 04:36:58;;;;;;;1.67;1.58;;;;;;;-1.81;100.00;91893.81;2110331;28;20095;-85
2024/02/25 04:38:11;;;;;;;1.98;1.88;;;;;;;-1.85;100.00;91893.78;2121090;27;20015;-84
2024/02/25 04:39:12;;;;;;;2.35;1.80;;;;;;;-1.93;100.00;91897.50;2104055;28;20893;-88
2024/02/25 04:40:13;;;;;;;1.55;1.45;;;;;;;-1.81;100.00;91896.41;2097926;28;20025;-88
2024/02/25 04:41:15;;;;;;;1.90;1.80;;;;;;;-1.82;100.00;91894.94;2093752;28;20075;-82
2024/02/25 04:42:16;;;;;;;1.70;1.60;;;;;;;-1.86;100.00;91897.53;2095922;28;20128;-83
2024/02/25 04:43:17;;;;;;;1.95;1.83;;;;;;;-1.94;100.00;91897.84;2097297;28;20090;-85
2024/02/25 04:44:18;;;;;;;1.85;1.60;;;;;;;-1.85;100.00;91900.91;2096302;28;20020;-86
2024/02/25 04:45:19;;;;;;;1.50;1.40;;;;;;;-1.79;100.00;91894.19;2091814;28;20450;-84
2024/02/25 04:46:20;;;;;;;1.80;1.70;;;;;;;-1.78;100.00;91895.69;2087586;28;20534;-87
2024/02/25 04:47:21;;;;;;;1.77;1.50;;;;;;;-1.80;100.00;91903.94;2105885;28;20113;-83